sensor_id;sensor_type;location;lat;lon;timestamp;P1;durP1;ratioP1;P2;durP2;ratioP2
8151;SDS011;4117;53.622;9.958;2024-03-02T00:01:06;16.83;;;10.50;;
8151;SDS011;4117;53.622;9.958;2024-03-02T00:03:33;21.27;;;12.23;;
8151;SDS011;4117;53.622;9.958;2024-03-02T00:06:00;16.93;;;11.83;;
8151;SDS011;4117;53.622;9.958;2024-03-02T00:08:27;18.83;;;12.23;;
8151;SDS011;4117;53.622;9.958;2024-03-02T00:10:57;16.63;;;11.97;;
8151;SDS011;4117;53.622;9.958;2024-03-02T00:13:24;15.07;;;11.13;;
8151;SDS011;4117;53.622;9.958;2024-03-02T00:15:52;17.43;;;12.03;;
8151;SDS011;4117;53.622;9.958;2024-03-02T00:18:24;13.13;;;10.43;;
8151;SDS011;4117;53.622;9.958;2024-03-02T00:20:53;17.43;;;11.83;;
8151;SDS011;4117;53.622;9.958;2024-03-02T00:23:22;16.73;;;11.77;;
8151;SDS011;4117;53.622;9.958;2024-03-02T00:25:52;17.47;;;12.07;;
8151;SDS011;4117;53.622;9.958;2024-03-02T00:28:20;17.50;;;11.70;;
8151;SDS011;4117;53.622;9.958;2024-03-02T00:30:52;16.27;;;12.13;;
8151;SDS011;4117;53.622;9.958;2024-03-02T00:33:25;18.93;;;12.23;;
8151;SDS011;4117;53.622;9.958;2024-03-02T00:35:54;15.47;;;11.23;;
8151;SDS011;4117;53.622;9.958;2024-03-02T00:38:21;18.17;;;13.00;;
8151;SDS011;4117;53.622;9.958;2024-03-02T00:40:49;18.43;;;13.17;;
8151;SDS011;4117;53.622;9.958;2024-03-02T00:46:12;17.27;;;12.27;;
8151;SDS011;4117;53.622;9.958;2024-03-02T00:48:45;16.10;;;11.87;;
8151;SDS011;4117;53.622;9.958;2024-03-02T00:51:17;16.57;;;12.07;;
8151;SDS011;4117;53.622;9.958;2024-03-02T00:53:44;20.00;;;13.03;;
8151;SDS011;4117;53.622;9.958;2024-03-02T00:56:12;17.43;;;12.87;;
8151;SDS011;4117;53.622;9.958;2024-03-02T00:58:39;16.67;;;12.77;;
8151;SDS011;4117;53.622;9.958;2024-03-02T01:01:06;17.97;;;12.30;;
8151;SDS011;4117;53.622;9.958;2024-03-02T01:03:33;21.27;;;13.63;;
8151;SDS011;4117;53.622;9.958;2024-03-02T01:06:04;20.20;;;13.93;;
8151;SDS011;4117;53.622;9.958;2024-03-02T01:08:32;22.03;;;13.80;;
8151;SDS011;4117;53.622;9.958;2024-03-02T01:10:59;21.47;;;14.57;;
8151;SDS011;4117;53.622;9.958;2024-03-02T01:13:26;19.57;;;13.87;;
8151;SDS011;4117;53.622;9.958;2024-03-02T01:15:54;20.70;;;14.87;;
8151;SDS011;4117;53.622;9.958;2024-03-02T01:18:21;20.60;;;14.57;;
8151;SDS011;4117;53.622;9.958;2024-03-02T01:20:48;22.57;;;14.07;;
8151;SDS011;4117;53.622;9.958;2024-03-02T01:23:18;24.17;;;15.80;;
8151;SDS011;4117;53.622;9.958;2024-03-02T01:25:46;23.23;;;15.10;;
8151;SDS011;4117;53.622;9.958;2024-03-02T01:28:13;21.90;;;15.23;;
8151;SDS011;4117;53.622;9.958;2024-03-02T01:30:40;22.87;;;15.47;;
8151;SDS011;4117;53.622;9.958;2024-03-02T01:33:10;24.10;;;15.23;;
8151;SDS011;4117;53.622;9.958;2024-03-02T01:35:37;22.13;;;15.93;;
8151;SDS011;4117;53.622;9.958;2024-03-02T01:38:04;21.20;;;15.00;;
8151;SDS011;4117;53.622;9.958;2024-03-02T01:40:34;22.53;;;14.73;;
8151;SDS011;4117;53.622;9.958;2024-03-02T01:43:01;19.90;;;14.53;;
8151;SDS011;4117;53.622;9.958;2024-03-02T01:45:28;25.47;;;18.53;;
8151;SDS011;4117;53.622;9.958;2024-03-02T01:47:55;25.90;;;16.67;;
8151;SDS011;4117;53.622;9.958;2024-03-02T01:50:26;26.50;;;15.73;;
8151;SDS011;4117;53.622;9.958;2024-03-02T01:52:53;22.83;;;16.47;;
8151;SDS011;4117;53.622;9.958;2024-03-02T01:55:21;23.57;;;15.93;;
8151;SDS011;4117;53.622;9.958;2024-03-02T01:57:48;22.33;;;15.63;;
8151;SDS011;4117;53.622;9.958;2024-03-02T02:00:17;24.93;;;16.97;;
8151;SDS011;4117;53.622;9.958;2024-03-02T02:02:44;23.53;;;15.87;;
8151;SDS011;4117;53.622;9.958;2024-03-02T02:05:11;23.33;;;16.50;;
8151;SDS011;4117;53.622;9.958;2024-03-02T02:07:38;25.77;;;17.57;;
8151;SDS011;4117;53.622;9.958;2024-03-02T02:10:07;26.80;;;17.43;;
8151;SDS011;4117;53.622;9.958;2024-03-02T02:12:34;24.80;;;15.90;;
8151;SDS011;4117;53.622;9.958;2024-03-02T02:15:03;29.97;;;18.53;;
8151;SDS011;4117;53.622;9.958;2024-03-02T02:17:30;28.03;;;17.33;;
8151;SDS011;4117;53.622;9.958;2024-03-02T02:19:57;28.30;;;18.73;;
8151;SDS011;4117;53.622;9.958;2024-03-02T02:22:26;26.47;;;18.07;;
8151;SDS011;4117;53.622;9.958;2024-03-02T02:24:53;33.00;;;19.83;;
8151;SDS011;4117;53.622;9.958;2024-03-02T02:27:20;28.37;;;19.33;;
8151;SDS011;4117;53.622;9.958;2024-03-02T02:29:47;32.17;;;20.73;;
8151;SDS011;4117;53.622;9.958;2024-03-02T02:32:14;28.07;;;19.97;;
8151;SDS011;4117;53.622;9.958;2024-03-02T02:34:51;29.67;;;20.63;;
8151;SDS011;4117;53.622;9.958;2024-03-02T02:37:18;29.90;;;19.53;;
8151;SDS011;4117;53.622;9.958;2024-03-02T02:39:47;28.67;;;19.47;;
8151;SDS011;4117;53.622;9.958;2024-03-02T02:42:14;29.50;;;19.60;;
8151;SDS011;4117;53.622;9.958;2024-03-02T02:44:41;27.60;;;19.73;;
8151;SDS011;4117;53.622;9.958;2024-03-02T02:47:07;30.60;;;20.33;;
8151;SDS011;4117;53.622;9.958;2024-03-02T02:49:34;26.50;;;19.20;;
8151;SDS011;4117;53.622;9.958;2024-03-02T02:52:01;30.60;;;20.27;;
8151;SDS011;4117;53.622;9.958;2024-03-02T02:54:28;30.57;;;20.53;;
8151;SDS011;4117;53.622;9.958;2024-03-02T02:56:57;29.27;;;19.53;;
8151;SDS011;4117;53.622;9.958;2024-03-02T02:59:24;28.87;;;19.83;;
8151;SDS011;4117;53.622;9.958;2024-03-02T03:01:51;28.03;;;19.30;;
8151;SDS011;4117;53.622;9.958;2024-03-02T03:04:18;32.03;;;19.97;;
8151;SDS011;4117;53.622;9.958;2024-03-02T03:06:45;27.57;;;18.67;;
8151;SDS011;4117;53.622;9.958;2024-03-02T03:09:12;30.23;;;19.87;;
8151;SDS011;4117;53.622;9.958;2024-03-02T03:11:39;29.07;;;19.57;;
8151;SDS011;4117;53.622;9.958;2024-03-02T03:14:09;29.73;;;19.43;;
8151;SDS011;4117;53.622;9.958;2024-03-02T03:16:36;28.17;;;18.57;;
8151;SDS011;4117;53.622;9.958;2024-03-02T03:19:03;31.27;;;20.00;;
8151;SDS011;4117;53.622;9.958;2024-03-02T03:21:30;31.37;;;20.83;;
8151;SDS011;4117;53.622;9.958;2024-03-02T03:23:57;31.03;;;20.47;;
8151;SDS011;4117;53.622;9.958;2024-03-02T03:26:24;29.47;;;19.07;;
8151;SDS011;4117;53.622;9.958;2024-03-02T03:28:51;26.97;;;18.43;;
8151;SDS011;4117;53.622;9.958;2024-03-02T03:31:22;28.10;;;18.83;;
8151;SDS011;4117;53.622;9.958;2024-03-02T03:33:49;26.03;;;18.80;;
8151;SDS011;4117;53.622;9.958;2024-03-02T03:36:16;29.60;;;19.23;;
8151;SDS011;4117;53.622;9.958;2024-03-02T03:38:43;25.03;;;17.67;;
8151;SDS011;4117;53.622;9.958;2024-03-02T03:41:10;30.80;;;19.40;;
8151;SDS011;4117;53.622;9.958;2024-03-02T03:43:37;29.57;;;18.70;;
8151;SDS011;4117;53.622;9.958;2024-03-02T03:46:04;28.17;;;19.00;;
8151;SDS011;4117;53.622;9.958;2024-03-02T03:48:32;27.40;;;18.40;;
8151;SDS011;4117;53.622;9.958;2024-03-02T03:50:59;27.77;;;19.17;;
8151;SDS011;4117;53.622;9.958;2024-03-02T03:53:27;29.37;;;18.93;;
8151;SDS011;4117;53.622;9.958;2024-03-02T03:55:53;29.53;;;19.67;;
8151;SDS011;4117;53.622;9.958;2024-03-02T03:58:21;27.57;;;19.07;;
8151;SDS011;4117;53.622;9.958;2024-03-02T04:00:48;26.37;;;18.57;;
8151;SDS011;4117;53.622;9.958;2024-03-02T04:03:15;28.83;;;19.00;;
8151;SDS011;4117;53.622;9.958;2024-03-02T04:05:43;28.60;;;18.33;;
8151;SDS011;4117;53.622;9.958;2024-03-02T04:08:10;26.57;;;18.77;;
8151;SDS011;4117;53.622;9.958;2024-03-02T04:10:37;27.17;;;19.20;;
8151;SDS011;4117;53.622;9.958;2024-03-02T04:13:05;27.83;;;19.23;;
8151;SDS011;4117;53.622;9.958;2024-03-02T04:15:32;26.43;;;18.73;;
8151;SDS011;4117;53.622;9.958;2024-03-02T04:17:59;29.37;;;19.20;;
8151;SDS011;4117;53.622;9.958;2024-03-02T04:20:26;27.63;;;18.80;;
8151;SDS011;4117;53.622;9.958;2024-03-02T04:22:55;30.07;;;19.20;;
8151;SDS011;4117;53.622;9.958;2024-03-02T04:25:22;30.73;;;20.13;;
8151;SDS011;4117;53.622;9.958;2024-03-02T04:27:49;26.90;;;18.47;;
8151;SDS011;4117;53.622;9.958;2024-03-02T04:30:16;25.70;;;18.63;;
8151;SDS011;4117;53.622;9.958;2024-03-02T04:32:43;29.57;;;19.27;;
8151;SDS011;4117;53.622;9.958;2024-03-02T04:35:11;27.83;;;19.10;;
8151;SDS011;4117;53.622;9.958;2024-03-02T04:37:38;29.10;;;18.67;;
8151;SDS011;4117;53.622;9.958;2024-03-02T04:40:07;26.13;;;18.00;;
8151;SDS011;4117;53.622;9.958;2024-03-02T04:42:35;26.37;;;18.30;;
8151;SDS011;4117;53.622;9.958;2024-03-02T04:45:02;26.90;;;18.07;;
8151;SDS011;4117;53.622;9.958;2024-03-02T04:47:29;25.37;;;17.27;;
8151;SDS011;4117;53.622;9.958;2024-03-02T04:49:57;28.60;;;19.00;;
8151;SDS011;4117;53.622;9.958;2024-03-02T04:52:24;27.87;;;18.07;;
8151;SDS011;4117;53.622;9.958;2024-03-02T04:54:51;24.77;;;17.43;;
8151;SDS011;4117;53.622;9.958;2024-03-02T04:57:45;28.07;;;18.93;;
8151;SDS011;4117;53.622;9.958;2024-03-02T05:00:13;29.33;;;19.33;;
8151;SDS011;4117;53.622;9.958;2024-03-02T05:02:40;25.87;;;18.43;;
8151;SDS011;4117;53.622;9.958;2024-03-02T05:05:07;27.50;;;18.90;;
8151;SDS011;4117;53.622;9.958;2024-03-02T05:07:34;28.10;;;17.80;;
8151;SDS011;4117;53.622;9.958;2024-03-02T05:10:01;30.13;;;19.70;;
8151;SDS011;4117;53.622;9.958;2024-03-02T05:12:28;25.20;;;18.93;;
8151;SDS011;4117;53.622;9.958;2024-03-02T05:15:22;28.67;;;18.83;;
8151;SDS011;4117;53.622;9.958;2024-03-02T05:17:49;30.00;;;19.73;;
8151;SDS011;4117;53.622;9.958;2024-03-02T05:20:16;26.57;;;18.37;;
8151;SDS011;4117;53.622;9.958;2024-03-02T05:22:43;29.13;;;18.37;;
8151;SDS011;4117;53.622;9.958;2024-03-02T05:25:10;25.53;;;17.50;;
8151;SDS011;4117;53.622;9.958;2024-03-02T05:27:37;25.90;;;17.80;;
8151;SDS011;4117;53.622;9.958;2024-03-02T05:30:04;27.00;;;17.37;;
8151;SDS011;4117;53.622;9.958;2024-03-02T05:32:34;27.13;;;17.90;;
8151;SDS011;4117;53.622;9.958;2024-03-02T05:35:01;28.87;;;18.83;;
8151;SDS011;4117;53.622;9.958;2024-03-02T05:37:30;26.57;;;17.73;;
8151;SDS011;4117;53.622;9.958;2024-03-02T05:39:57;25.73;;;17.43;;
8151;SDS011;4117;53.622;9.958;2024-03-02T05:42:24;25.20;;;17.50;;
8151;SDS011;4117;53.622;9.958;2024-03-02T05:44:52;27.40;;;18.60;;
8151;SDS011;4117;53.622;9.958;2024-03-02T05:47:19;24.60;;;17.73;;
8151;SDS011;4117;53.622;9.958;2024-03-02T05:49:47;23.63;;;17.27;;
8151;SDS011;4117;53.622;9.958;2024-03-02T05:52:15;23.90;;;16.70;;
8151;SDS011;4117;53.622;9.958;2024-03-02T05:54:42;25.00;;;17.10;;
8151;SDS011;4117;53.622;9.958;2024-03-02T05:57:09;24.37;;;17.53;;
8151;SDS011;4117;53.622;9.958;2024-03-02T05:59:58;24.67;;;17.53;;
8151;SDS011;4117;53.622;9.958;2024-03-02T06:02:26;22.93;;;15.77;;
8151;SDS011;4117;53.622;9.958;2024-03-02T06:04:55;25.13;;;17.33;;
8151;SDS011;4117;53.622;9.958;2024-03-02T06:07:22;26.47;;;17.20;;
8151;SDS011;4117;53.622;9.958;2024-03-02T06:09:49;26.93;;;17.60;;
8151;SDS011;4117;53.622;9.958;2024-03-02T06:12:17;24.67;;;17.40;;
8151;SDS011;4117;53.622;9.958;2024-03-02T06:14:45;26.30;;;16.97;;
8151;SDS011;4117;53.622;9.958;2024-03-02T06:17:12;26.57;;;16.87;;
8151;SDS011;4117;53.622;9.958;2024-03-02T06:19:39;22.87;;;16.43;;
8151;SDS011;4117;53.622;9.958;2024-03-02T06:22:07;25.47;;;16.20;;
8151;SDS011;4117;53.622;9.958;2024-03-02T06:24:35;26.97;;;18.23;;
8151;SDS011;4117;53.622;9.958;2024-03-02T06:27:02;22.67;;;16.70;;
8151;SDS011;4117;53.622;9.958;2024-03-02T06:29:32;24.33;;;17.07;;
8151;SDS011;4117;53.622;9.958;2024-03-02T06:31:59;23.60;;;17.37;;
8151;SDS011;4117;53.622;9.958;2024-03-02T06:34:26;23.23;;;16.93;;
8151;SDS011;4117;53.622;9.958;2024-03-02T06:36:53;22.13;;;16.03;;
8151;SDS011;4117;53.622;9.958;2024-03-02T06:39:22;23.10;;;16.03;;
8151;SDS011;4117;53.622;9.958;2024-03-02T06:41:49;22.67;;;16.87;;
8151;SDS011;4117;53.622;9.958;2024-03-02T06:44:16;22.67;;;16.60;;
8151;SDS011;4117;53.622;9.958;2024-03-02T06:46:43;25.33;;;17.53;;
8151;SDS011;4117;53.622;9.958;2024-03-02T06:49:10;27.13;;;16.90;;
8151;SDS011;4117;53.622;9.958;2024-03-02T06:51:37;22.70;;;16.47;;
8151;SDS011;4117;53.622;9.958;2024-03-02T06:54:04;22.23;;;16.37;;
8151;SDS011;4117;53.622;9.958;2024-03-02T06:56:32;24.83;;;16.50;;
8151;SDS011;4117;53.622;9.958;2024-03-02T06:58:59;24.50;;;16.87;;
8151;SDS011;4117;53.622;9.958;2024-03-02T07:01:26;25.03;;;16.73;;
8151;SDS011;4117;53.622;9.958;2024-03-02T07:03:53;22.67;;;17.17;;
8151;SDS011;4117;53.622;9.958;2024-03-02T07:06:23;27.90;;;15.87;;
8151;SDS011;4117;53.622;9.958;2024-03-02T07:08:50;21.23;;;15.80;;
8151;SDS011;4117;53.622;9.958;2024-03-02T07:11:17;24.93;;;16.10;;
8151;SDS011;4117;53.622;9.958;2024-03-02T07:13:45;25.27;;;16.57;;
8151;SDS011;4117;53.622;9.958;2024-03-02T07:16:12;23.90;;;16.30;;
8151;SDS011;4117;53.622;9.958;2024-03-02T07:18:53;24.40;;;16.20;;
8151;SDS011;4117;53.622;9.958;2024-03-02T07:21:21;24.27;;;16.67;;
8151;SDS011;4117;53.622;9.958;2024-03-02T07:23:49;23.20;;;17.03;;
8151;SDS011;4117;53.622;9.958;2024-03-02T07:26:16;24.23;;;16.73;;
8151;SDS011;4117;53.622;9.958;2024-03-02T07:28:46;22.20;;;16.77;;
8151;SDS011;4117;53.622;9.958;2024-03-02T07:31:14;27.43;;;17.40;;
8151;SDS011;4117;53.622;9.958;2024-03-02T07:33:41;21.97;;;16.10;;
8151;SDS011;4117;53.622;9.958;2024-03-02T07:36:10;27.97;;;17.23;;
8151;SDS011;4117;53.622;9.958;2024-03-02T07:38:37;24.20;;;17.50;;
8151;SDS011;4117;53.622;9.958;2024-03-02T07:41:05;27.37;;;17.80;;
8151;SDS011;4117;53.622;9.958;2024-03-02T07:43:32;24.90;;;17.37;;
8151;SDS011;4117;53.622;9.958;2024-03-02T07:46:01;22.80;;;15.77;;
8151;SDS011;4117;53.622;9.958;2024-03-02T07:48:29;24.97;;;17.63;;
8151;SDS011;4117;53.622;9.958;2024-03-02T07:50:56;24.03;;;16.47;;
8151;SDS011;4117;53.622;9.958;2024-03-02T07:53:23;24.13;;;17.50;;
8151;SDS011;4117;53.622;9.958;2024-03-02T07:55:50;22.53;;;16.13;;
8151;SDS011;4117;53.622;9.958;2024-03-02T07:58:17;22.40;;;16.50;;
8151;SDS011;4117;53.622;9.958;2024-03-02T08:00:45;23.37;;;16.80;;
8151;SDS011;4117;53.622;9.958;2024-03-02T08:03:13;22.60;;;16.30;;
8151;SDS011;4117;53.622;9.958;2024-03-02T08:05:41;27.50;;;18.03;;
8151;SDS011;4117;53.622;9.958;2024-03-02T08:08:08;24.37;;;17.40;;
8151;SDS011;4117;53.622;9.958;2024-03-02T08:10:36;24.13;;;17.23;;
8151;SDS011;4117;53.622;9.958;2024-03-02T08:13:03;23.37;;;16.33;;
8151;SDS011;4117;53.622;9.958;2024-03-02T08:15:30;24.93;;;16.30;;
8151;SDS011;4117;53.622;9.958;2024-03-02T08:17:59;23.43;;;16.97;;
8151;SDS011;4117;53.622;9.958;2024-03-02T08:20:29;22.40;;;16.17;;
8151;SDS011;4117;53.622;9.958;2024-03-02T08:22:57;24.83;;;17.37;;
8151;SDS011;4117;53.622;9.958;2024-03-02T08:25:24;25.40;;;16.73;;
8151;SDS011;4117;53.622;9.958;2024-03-02T08:27:51;23.93;;;16.43;;
8151;SDS011;4117;53.622;9.958;2024-03-02T08:30:26;24.33;;;16.87;;
8151;SDS011;4117;53.622;9.958;2024-03-02T08:32:53;25.90;;;17.37;;
8151;SDS011;4117;53.622;9.958;2024-03-02T08:35:20;22.47;;;16.77;;
8151;SDS011;4117;53.622;9.958;2024-03-02T08:37:49;25.37;;;17.93;;
8151;SDS011;4117;53.622;9.958;2024-03-02T08:40:16;22.10;;;16.47;;
8151;SDS011;4117;53.622;9.958;2024-03-02T08:42:43;23.67;;;16.73;;
8151;SDS011;4117;53.622;9.958;2024-03-02T08:45:14;24.60;;;16.77;;
8151;SDS011;4117;53.622;9.958;2024-03-02T08:47:49;26.87;;;17.93;;
8151;SDS011;4117;53.622;9.958;2024-03-02T08:50:16;22.70;;;16.60;;
8151;SDS011;4117;53.622;9.958;2024-03-02T08:52:43;33.10;;;18.07;;
8151;SDS011;4117;53.622;9.958;2024-03-02T08:55:12;25.23;;;17.57;;
8151;SDS011;4117;53.622;9.958;2024-03-02T08:57:39;24.17;;;16.33;;
8151;SDS011;4117;53.622;9.958;2024-03-02T09:00:07;23.30;;;17.17;;
8151;SDS011;4117;53.622;9.958;2024-03-02T09:02:35;26.73;;;18.33;;
8151;SDS011;4117;53.622;9.958;2024-03-02T09:05:03;25.53;;;17.40;;
8151;SDS011;4117;53.622;9.958;2024-03-02T09:07:33;24.23;;;16.93;;
8151;SDS011;4117;53.622;9.958;2024-03-02T09:10:00;24.67;;;18.27;;
8151;SDS011;4117;53.622;9.958;2024-03-02T09:12:29;24.63;;;17.50;;
8151;SDS011;4117;53.622;9.958;2024-03-02T09:14:56;25.40;;;16.90;;
8151;SDS011;4117;53.622;9.958;2024-03-02T09:17:23;22.77;;;17.00;;
8151;SDS011;4117;53.622;9.958;2024-03-02T09:19:53;22.10;;;16.70;;
8151;SDS011;4117;53.622;9.958;2024-03-02T09:22:20;22.93;;;16.13;;
8151;SDS011;4117;53.622;9.958;2024-03-02T09:24:47;21.20;;;15.07;;
8151;SDS011;4117;53.622;9.958;2024-03-02T09:27:14;21.87;;;16.17;;
8151;SDS011;4117;53.622;9.958;2024-03-02T09:29:42;21.77;;;16.10;;
8151;SDS011;4117;53.622;9.958;2024-03-02T09:32:11;23.23;;;16.13;;
8151;SDS011;4117;53.622;9.958;2024-03-02T09:34:39;23.27;;;16.37;;
8151;SDS011;4117;53.622;9.958;2024-03-02T09:37:06;21.13;;;15.77;;
8151;SDS011;4117;53.622;9.958;2024-03-02T09:39:35;22.43;;;15.77;;
8151;SDS011;4117;53.622;9.958;2024-03-02T09:42:03;24.17;;;16.47;;
8151;SDS011;4117;53.622;9.958;2024-03-02T09:44:32;25.43;;;16.10;;
8151;SDS011;4117;53.622;9.958;2024-03-02T09:47:01;23.83;;;16.20;;
8151;SDS011;4117;53.622;9.958;2024-03-02T09:49:28;21.87;;;15.23;;
8151;SDS011;4117;53.622;9.958;2024-03-02T09:51:55;20.47;;;15.50;;
8151;SDS011;4117;53.622;9.958;2024-03-02T09:54:23;19.23;;;14.73;;
8151;SDS011;4117;53.622;9.958;2024-03-02T09:56:50;19.70;;;14.33;;
8151;SDS011;4117;53.622;9.958;2024-03-02T09:59:17;20.33;;;15.30;;
8151;SDS011;4117;53.622;9.958;2024-03-02T10:01:55;21.83;;;15.07;;
8151;SDS011;4117;53.622;9.958;2024-03-02T10:04:25;20.40;;;15.33;;
8151;SDS011;4117;53.622;9.958;2024-03-02T10:07:01;21.10;;;14.30;;
8151;SDS011;4117;53.622;9.958;2024-03-02T10:09:39;20.60;;;14.33;;
8151;SDS011;4117;53.622;9.958;2024-03-02T10:12:07;21.20;;;15.07;;
8151;SDS011;4117;53.622;9.958;2024-03-02T10:14:36;21.13;;;14.53;;
8151;SDS011;4117;53.622;9.958;2024-03-02T10:17:04;19.03;;;13.93;;
8151;SDS011;4117;53.622;9.958;2024-03-02T10:19:33;19.00;;;13.97;;
8151;SDS011;4117;53.622;9.958;2024-03-02T10:22:02;20.47;;;14.13;;
8151;SDS011;4117;53.622;9.958;2024-03-02T10:24:35;18.63;;;13.73;;
8151;SDS011;4117;53.622;9.958;2024-03-02T10:27:06;19.63;;;13.60;;
8151;SDS011;4117;53.622;9.958;2024-03-02T10:29:36;19.33;;;13.10;;
8151;SDS011;4117;53.622;9.958;2024-03-02T10:32:08;17.13;;;13.03;;
8151;SDS011;4117;53.622;9.958;2024-03-02T10:34:37;17.73;;;12.67;;
8151;SDS011;4117;53.622;9.958;2024-03-02T10:37:06;18.43;;;12.23;;
8151;SDS011;4117;53.622;9.958;2024-03-02T10:39:34;15.97;;;12.27;;
8151;SDS011;4117;53.622;9.958;2024-03-02T10:42:02;17.33;;;12.27;;
8151;SDS011;4117;53.622;9.958;2024-03-02T10:44:30;15.83;;;11.13;;
8151;SDS011;4117;53.622;9.958;2024-03-02T10:46:59;17.07;;;12.13;;
8151;SDS011;4117;53.622;9.958;2024-03-02T10:49:29;15.87;;;11.90;;
8151;SDS011;4117;53.622;9.958;2024-03-02T10:51:58;15.27;;;11.40;;
8151;SDS011;4117;53.622;9.958;2024-03-02T10:54:25;19.63;;;11.93;;
8151;SDS011;4117;53.622;9.958;2024-03-02T10:56:55;15.43;;;11.13;;
8151;SDS011;4117;53.622;9.958;2024-03-02T10:59:26;14.53;;;10.90;;
8151;SDS011;4117;53.622;9.958;2024-03-02T11:01:56;17.50;;;11.37;;
8151;SDS011;4117;53.622;9.958;2024-03-02T11:04:25;13.40;;;11.10;;
8151;SDS011;4117;53.622;9.958;2024-03-02T11:06:54;16.20;;;11.03;;
8151;SDS011;4117;53.622;9.958;2024-03-02T11:09:27;13.80;;;10.37;;
8151;SDS011;4117;53.622;9.958;2024-03-02T11:11:58;15.97;;;9.90;;
8151;SDS011;4117;53.622;9.958;2024-03-02T11:14:30;12.63;;;9.70;;
8151;SDS011;4117;53.622;9.958;2024-03-02T11:16:59;14.67;;;10.90;;
8151;SDS011;4117;53.622;9.958;2024-03-02T11:19:28;16.07;;;10.77;;
8151;SDS011;4117;53.622;9.958;2024-03-02T11:21:57;12.40;;;9.77;;
8151;SDS011;4117;53.622;9.958;2024-03-02T11:24:29;13.27;;;10.13;;
8151;SDS011;4117;53.622;9.958;2024-03-02T11:27:00;13.03;;;9.67;;
8151;SDS011;4117;53.622;9.958;2024-03-02T11:29:43;13.20;;;9.50;;
8151;SDS011;4117;53.622;9.958;2024-03-02T11:32:17;12.77;;;9.40;;
8151;SDS011;4117;53.622;9.958;2024-03-02T11:34:47;12.00;;;9.37;;
8151;SDS011;4117;53.622;9.958;2024-03-02T11:37:15;11.70;;;8.60;;
8151;SDS011;4117;53.622;9.958;2024-03-02T11:39:45;13.50;;;9.47;;
8151;SDS011;4117;53.622;9.958;2024-03-02T11:42:13;10.33;;;8.30;;
8151;SDS011;4117;53.622;9.958;2024-03-02T11:44:42;11.33;;;8.47;;
8151;SDS011;4117;53.622;9.958;2024-03-02T11:47:11;12.20;;;8.53;;
8151;SDS011;4117;53.622;9.958;2024-03-02T11:49:41;11.60;;;8.43;;
8151;SDS011;4117;53.622;9.958;2024-03-02T11:52:09;11.63;;;8.70;;
8151;SDS011;4117;53.622;9.958;2024-03-02T11:54:37;9.10;;;7.83;;
8151;SDS011;4117;53.622;9.958;2024-03-02T11:57:07;10.57;;;8.27;;
8151;SDS011;4117;53.622;9.958;2024-03-02T11:59:34;12.30;;;7.33;;
8151;SDS011;4117;53.622;9.958;2024-03-02T12:02:01;10.43;;;7.73;;
8151;SDS011;4117;53.622;9.958;2024-03-02T12:04:29;9.50;;;7.33;;
8151;SDS011;4117;53.622;9.958;2024-03-02T12:06:57;9.77;;;7.30;;
8151;SDS011;4117;53.622;9.958;2024-03-02T12:09:28;10.27;;;7.20;;
8151;SDS011;4117;53.622;9.958;2024-03-02T12:12:02;11.87;;;7.50;;
8151;SDS011;4117;53.622;9.958;2024-03-02T12:14:32;10.23;;;7.57;;
8151;SDS011;4117;53.622;9.958;2024-03-02T12:17:04;9.87;;;6.70;;
8151;SDS011;4117;53.622;9.958;2024-03-02T12:19:32;9.37;;;6.73;;
8151;SDS011;4117;53.622;9.958;2024-03-02T12:21:59;8.80;;;6.73;;
8151;SDS011;4117;53.622;9.958;2024-03-02T12:24:30;7.97;;;6.40;;
8151;SDS011;4117;53.622;9.958;2024-03-02T12:26:57;7.63;;;6.30;;
8151;SDS011;4117;53.622;9.958;2024-03-02T12:29:24;8.47;;;6.50;;
8151;SDS011;4117;53.622;9.958;2024-03-02T12:31:53;8.20;;;6.20;;
8151;SDS011;4117;53.622;9.958;2024-03-02T12:34:21;10.17;;;6.53;;
8151;SDS011;4117;53.622;9.958;2024-03-02T12:36:48;8.10;;;6.53;;
8151;SDS011;4117;53.622;9.958;2024-03-02T12:39:18;8.23;;;6.07;;
8151;SDS011;4117;53.622;9.958;2024-03-02T12:41:48;8.23;;;6.03;;
8151;SDS011;4117;53.622;9.958;2024-03-02T12:44:16;7.67;;;5.93;;
8151;SDS011;4117;53.622;9.958;2024-03-02T12:46:44;6.67;;;5.43;;
8151;SDS011;4117;53.622;9.958;2024-03-02T12:49:13;7.00;;;5.33;;
8151;SDS011;4117;53.622;9.958;2024-03-02T12:51:41;7.43;;;5.67;;
8151;SDS011;4117;53.622;9.958;2024-03-02T12:54:10;7.20;;;5.67;;
8151;SDS011;4117;53.622;9.958;2024-03-02T12:56:37;8.07;;;6.13;;
8151;SDS011;4117;53.622;9.958;2024-03-02T12:59:04;7.67;;;5.83;;
8151;SDS011;4117;53.622;9.958;2024-03-02T13:01:32;7.43;;;5.30;;
8151;SDS011;4117;53.622;9.958;2024-03-02T13:03:59;7.33;;;5.70;;
8151;SDS011;4117;53.622;9.958;2024-03-02T13:06:27;7.00;;;5.60;;
8151;SDS011;4117;53.622;9.958;2024-03-02T13:08:54;7.17;;;5.60;;
8151;SDS011;4117;53.622;9.958;2024-03-02T13:11:22;7.00;;;5.70;;
8151;SDS011;4117;53.622;9.958;2024-03-02T13:13:50;8.27;;;5.70;;
8151;SDS011;4117;53.622;9.958;2024-03-02T13:16:18;7.70;;;5.60;;
8151;SDS011;4117;53.622;9.958;2024-03-02T13:18:45;8.30;;;6.43;;
8151;SDS011;4117;53.622;9.958;2024-03-02T13:21:12;7.37;;;6.00;;
8151;SDS011;4117;53.622;9.958;2024-03-02T13:23:41;8.37;;;6.60;;
8151;SDS011;4117;53.622;9.958;2024-03-02T13:26:08;9.67;;;6.00;;
8151;SDS011;4117;53.622;9.958;2024-03-02T13:28:37;8.67;;;6.50;;
8151;SDS011;4117;53.622;9.958;2024-03-02T13:31:20;10.90;;;6.23;;
8151;SDS011;4117;53.622;9.958;2024-03-02T13:33:48;7.53;;;5.80;;
8151;SDS011;4117;53.622;9.958;2024-03-02T13:36:15;8.77;;;6.50;;
8151;SDS011;4117;53.622;9.958;2024-03-02T13:38:43;8.83;;;6.27;;
8151;SDS011;4117;53.622;9.958;2024-03-02T13:41:11;8.17;;;6.53;;
8151;SDS011;4117;53.622;9.958;2024-03-02T13:43:38;7.50;;;6.20;;
8151;SDS011;4117;53.622;9.958;2024-03-02T13:46:05;8.10;;;6.60;;
8151;SDS011;4117;53.622;9.958;2024-03-02T13:48:32;10.60;;;6.93;;
8151;SDS011;4117;53.622;9.958;2024-03-02T13:50:59;8.00;;;7.00;;
8151;SDS011;4117;53.622;9.958;2024-03-02T13:53:26;8.93;;;7.43;;
8151;SDS011;4117;53.622;9.958;2024-03-02T13:55:55;10.47;;;7.37;;
8151;SDS011;4117;53.622;9.958;2024-03-02T13:58:22;9.80;;;7.50;;
8151;SDS011;4117;53.622;9.958;2024-03-02T14:00:49;9.67;;;7.43;;
8151;SDS011;4117;53.622;9.958;2024-03-02T14:03:16;8.93;;;6.80;;
8151;SDS011;4117;53.622;9.958;2024-03-02T14:05:43;8.57;;;6.77;;
8151;SDS011;4117;53.622;9.958;2024-03-02T14:08:11;9.53;;;6.40;;
8151;SDS011;4117;53.622;9.958;2024-03-02T14:10:38;10.40;;;7.00;;
8151;SDS011;4117;53.622;9.958;2024-03-02T14:13:07;9.50;;;6.93;;
8151;SDS011;4117;53.622;9.958;2024-03-02T14:15:34;8.40;;;6.97;;
8151;SDS011;4117;53.622;9.958;2024-03-02T14:18:03;10.73;;;7.67;;
8151;SDS011;4117;53.622;9.958;2024-03-02T14:20:31;9.43;;;7.40;;
8151;SDS011;4117;53.622;9.958;2024-03-02T14:22:58;9.50;;;7.43;;
8151;SDS011;4117;53.622;9.958;2024-03-02T14:25:26;10.17;;;7.33;;
8151;SDS011;4117;53.622;9.958;2024-03-02T14:27:56;9.47;;;7.27;;
8151;SDS011;4117;53.622;9.958;2024-03-02T14:30:25;8.47;;;6.60;;
8151;SDS011;4117;53.622;9.958;2024-03-02T14:32:52;10.33;;;7.27;;
8151;SDS011;4117;53.622;9.958;2024-03-02T14:35:19;9.13;;;6.93;;
8151;SDS011;4117;53.622;9.958;2024-03-02T14:37:49;8.67;;;7.33;;
8151;SDS011;4117;53.622;9.958;2024-03-02T14:40:16;10.60;;;7.57;;
8151;SDS011;4117;53.622;9.958;2024-03-02T14:42:44;11.00;;;7.80;;
8151;SDS011;4117;53.622;9.958;2024-03-02T14:45:13;9.97;;;7.13;;
8151;SDS011;4117;53.622;9.958;2024-03-02T14:47:41;9.00;;;7.10;;
8151;SDS011;4117;53.622;9.958;2024-03-02T14:50:09;10.43;;;7.77;;
8151;SDS011;4117;53.622;9.958;2024-03-02T14:52:36;10.23;;;7.90;;
8151;SDS011;4117;53.622;9.958;2024-03-02T14:55:03;9.20;;;7.20;;
8151;SDS011;4117;53.622;9.958;2024-03-02T14:57:32;9.50;;;7.27;;
8151;SDS011;4117;53.622;9.958;2024-03-02T14:59:59;9.47;;;6.60;;
8151;SDS011;4117;53.622;9.958;2024-03-02T15:02:26;8.60;;;6.67;;